• Join FlightAware (Why Join?)
  • Login
  • US Flag 
07:42PM EDT


 

Airport Tracker/Info


-or-


 

Live Flight TrackerFlight Track Log ✈ SWA2353 ✈ 01-May-2013 ✈ KMDW - KSTL

Flight Track Log - Related Links

Times and Time Zones

All times are in EDT time to prevent confusion due to time zone crossing. See the SWA2353 flight status page for this flight to view local times or setup timezone preferences in your user account.

Time Position Orientation Groundspeed Altitude Reporting Facility
EDT Latitude Longitude Course Direction KTS MPH feet Rate Location/Type
09:31PM 41.7667 -87.7667 217° Southwest 147 169 1,700  Level Chicago TRACON
09:32PM 41.7333 -87.8000 217° Southwest 193 222 3,600 3,240 Climbing Chicago TRACON
09:34PM 41.6181 -87.8933 211° Southwest 256 295 11,400 3,360 Climbing Chicago Center
09:35PM 41.5392 -87.9442 206° Southwest 302 348 14,100 3,000 Climbing Chicago Center
09:36PM 41.4475 -88.0031 206° Southwest 351 404 17,600 3,600 Climbing Chicago Center
09:37PM 41.3375 -88.0525 199° South 399 459 21,600 3,780 Climbing Chicago Center
09:38PM 41.2353 -88.0861 194° South 382 440 25,400 2,100 Climbing Chicago Center
09:39PM 41.1247 -88.0986 185° South 397 457 26,000 240 Climbing Chicago Center
09:40PM 41.0050 -88.1131 185° South 425 489 26,000  Level Chicago Center
09:41PM 40.8853 -88.1267 185° South 433 498 26,000  Level Chicago Center
09:42PM 40.7422 -88.1447 185° South 434 499 26,000  Level Chicago Center
09:43PM 40.6233 -88.1589 185° South 432 497 26,000  Level Chicago Center
09:44PM 40.5086 -88.1997 195° South 430 495 26,000  Level Chicago Center
09:46PM 40.3956 -88.2536 200° South 434 499 26,000  Level Chicago Center
09:47PM 40.2839 -88.3061 200° South 431 496 26,000  Level Chicago Center
09:48PM 40.1697 -88.3600 200° South 431 496 26,000  Level Chicago Center
09:48PM 40.0786 -88.4003 199° South 432 497 26,000  Level Kansas City Center
09:49PM 39.9714 -88.4703 207° Southwest 439 505 26,000  Level Kansas City Center
09:50PM 39.8467 -88.5728 212° Southwest 440 506 26,000  Level Kansas City Center
09:51PM 39.7425 -88.6525 210° Southwest 436 502 26,000  Level Kansas City Center
09:53PM 39.6392 -88.7353 212° Southwest 435 501 26,000  Level Kansas City Center
09:54PM 39.5353 -88.8167 211° Southwest 435 501 26,000  Level Kansas City Center
09:55PM 39.4331 -88.8969 211° Southwest 432 497 26,000  Level Kansas City Center
09:56PM 39.3386 -88.9717 211° Southwest 431 496 26,000  Level Kansas City Center
09:57PM 39.2150 -89.0675 211° Southwest 432 497 26,000 -480 Level Kansas City Center
09:58PM 39.1131 -89.1472 211° Southwest 426 490 25,100 -1,440 Descending Kansas City Center
09:59PM 39.0692 -89.2694 245° Southwest 391 450 23,100 -2,280 Descending Kansas City Center
10:00PM 39.0364 -89.4142 254° West 392 451 20,500 -2,460 Descending Kansas City Center
10:01PM 39.0061 -89.5497 254° West 396 456 18,100 -2,460 Descending Kansas City Center
10:02PM 38.9708 -89.6761 250° West 383 441 15,500 -1,860 Descending Kansas City Center
10:03PM 38.9294 -89.8064 248° West 370 426 14,400 -1,440 Descending Kansas City Center
10:04PM 38.8989 -89.9006 247° West 350 403 12,600 -1,860 Descending Kansas City Center
10:05PM 38.8644 -90.0108 248° West 339 390 10,600 -1,620 Descending Kansas City Center
10:06PM 38.8272 -90.1292 248° West 298 343 9,400 -1,380 Descending Kansas City Center
10:07PM 38.8022 -90.2225 251° West 285 328 7,900 -1,380 Descending Kansas City Center
10:08PM 38.8369 -90.3058 298° West 275 316 6,600 -1,140 Descending Kansas City Center
10:09PM 38.8667 -90.3833 296° West 236 272 5,700 -1,200 Descending Gateway (St. Louis) TRACON
10:10PM 38.9000 -90.4500 303° West 216 249 4,400 -1,500 Descending Gateway (St. Louis) TRACON
10:11PM 38.8667 -90.4833 218° Southwest 196 226 2,800 -1,020 Descending Gateway (St. Louis) TRACON
10:12PM 38.8167 -90.4833 180° South 167 192 2,400 -480 Descending Gateway (St. Louis) TRACON
10:13PM 38.7833 -90.4500 142° Southeast 144 166 1,900 -600 Descending Gateway (St. Louis) TRACON
10:14PM 38.7667 -90.4000 113° Southeast 117 135 1,200 -600 Descending Gateway (St. Louis) TRACON
10:15PM 38.7500 -90.3667 123° Southeast 122 140 700 -600 Descending Gateway (St. Louis) TRACON